sensor_id;sensor_type;location;lat;lon;timestamp;P1;durP1;ratioP1;P2;durP2;ratioP2
68951;SDS011;56000;51.146;17.112;2022-10-17T00:01:38;29.60;;;19.90;;
68951;SDS011;56000;51.146;17.112;2022-10-17T00:04:11;32.80;;;21.30;;
68951;SDS011;56000;51.146;17.112;2022-10-17T00:06:44;34.70;;;20.50;;
68951;SDS011;56000;51.146;17.112;2022-10-17T00:09:16;33.60;;;21.80;;
68951;SDS011;56000;51.146;17.112;2022-10-17T00:11:49;35.00;;;20.90;;
68951;SDS011;56000;51.146;17.112;2022-10-17T00:14:22;31.40;;;19.90;;
68951;SDS011;56000;51.146;17.112;2022-10-17T00:16:55;30.30;;;20.30;;
68951;SDS011;56000;51.146;17.112;2022-10-17T00:19:28;27.30;;;18.80;;
68951;SDS011;56000;51.146;17.112;2022-10-17T00:22:01;35.70;;;20.50;;
68951;SDS011;56000;51.146;17.112;2022-10-17T00:24:34;31.70;;;20.20;;
68951;SDS011;56000;51.146;17.112;2022-10-17T00:27:07;31.60;;;20.50;;
68951;SDS011;56000;51.146;17.112;2022-10-17T00:29:39;31.00;;;20.40;;
68951;SDS011;56000;51.146;17.112;2022-10-17T00:32:12;32.90;;;20.10;;
68951;SDS011;56000;51.146;17.112;2022-10-17T00:34:45;36.40;;;21.80;;
68951;SDS011;56000;51.146;17.112;2022-10-17T00:37:19;31.80;;;19.90;;
68951;SDS011;56000;51.146;17.112;2022-10-17T00:39:52;30.80;;;20.40;;
68951;SDS011;56000;51.146;17.112;2022-10-17T00:42:26;29.70;;;19.90;;
68951;SDS011;56000;51.146;17.112;2022-10-17T00:45:09;36.40;;;21.80;;
68951;SDS011;56000;51.146;17.112;2022-10-17T00:47:48;29.80;;;19.20;;
68951;SDS011;56000;51.146;17.112;2022-10-17T00:50:25;31.10;;;19.70;;
68951;SDS011;56000;51.146;17.112;2022-10-17T00:52:59;35.50;;;21.90;;
68951;SDS011;56000;51.146;17.112;2022-10-17T00:55:35;35.80;;;20.50;;
68951;SDS011;56000;51.146;17.112;2022-10-17T00:58:21;31.80;;;21.10;;
68951;SDS011;56000;51.146;17.112;2022-10-17T01:00:54;32.70;;;20.20;;
68951;SDS011;56000;51.146;17.112;2022-10-17T01:03:27;30.30;;;19.40;;
68951;SDS011;56000;51.146;17.112;2022-10-17T01:06:00;32.80;;;20.80;;
68951;SDS011;56000;51.146;17.112;2022-10-17T01:08:33;36.80;;;22.20;;
68951;SDS011;56000;51.146;17.112;2022-10-17T01:11:10;30.20;;;20.20;;
68951;SDS011;56000;51.146;17.112;2022-10-17T01:13:51;30.40;;;19.00;;
68951;SDS011;56000;51.146;17.112;2022-10-17T01:16:31;33.50;;;20.80;;
68951;SDS011;56000;51.146;17.112;2022-10-17T01:19:20;34.10;;;22.00;;
68951;SDS011;56000;51.146;17.112;2022-10-17T01:22:14;31.80;;;20.00;;
68951;SDS011;56000;51.146;17.112;2022-10-17T01:25:02;31.10;;;19.60;;
68951;SDS011;56000;51.146;17.112;2022-10-17T01:27:58;39.30;;;22.60;;
68951;SDS011;56000;51.146;17.112;2022-10-17T01:30:59;32.60;;;20.10;;
68951;SDS011;56000;51.146;17.112;2022-10-17T01:33:47;30.80;;;19.60;;
68951;SDS011;56000;51.146;17.112;2022-10-17T01:36:36;35.30;;;21.80;;
68951;SDS011;56000;51.146;17.112;2022-10-17T01:39:19;32.40;;;21.50;;
68951;SDS011;56000;51.146;17.112;2022-10-17T01:42:11;35.30;;;21.00;;
68951;SDS011;56000;51.146;17.112;2022-10-17T01:44:51;34.20;;;21.70;;
68951;SDS011;56000;51.146;17.112;2022-10-17T01:47:30;32.00;;;20.50;;
68951;SDS011;56000;51.146;17.112;2022-10-17T01:50:06;40.80;;;23.10;;
68951;SDS011;56000;51.146;17.112;2022-10-17T01:52:46;34.50;;;21.80;;
68951;SDS011;56000;51.146;17.112;2022-10-17T01:55:24;31.80;;;19.70;;
68951;SDS011;56000;51.146;17.112;2022-10-17T01:58:03;31.10;;;19.60;;
68951;SDS011;56000;51.146;17.112;2022-10-17T02:00:39;28.30;;;17.80;;
68951;SDS011;56000;51.146;17.112;2022-10-17T02:03:16;29.40;;;18.80;;
68951;SDS011;56000;51.146;17.112;2022-10-17T02:05:51;32.80;;;19.60;;
68951;SDS011;56000;51.146;17.112;2022-10-17T02:08:28;31.70;;;20.90;;
68951;SDS011;56000;51.146;17.112;2022-10-17T02:11:14;31.20;;;19.40;;
68951;SDS011;56000;51.146;17.112;2022-10-17T02:14:10;26.40;;;16.90;;
68951;SDS011;56000;51.146;17.112;2022-10-17T02:16:53;30.90;;;18.70;;
68951;SDS011;56000;51.146;17.112;2022-10-17T02:19:42;30.00;;;19.60;;
68951;SDS011;56000;51.146;17.112;2022-10-17T02:22:29;31.70;;;20.10;;
68951;SDS011;56000;51.146;17.112;2022-10-17T02:25:13;28.00;;;19.60;;
68951;SDS011;56000;51.146;17.112;2022-10-17T02:27:55;34.10;;;22.50;;
68951;SDS011;56000;51.146;17.112;2022-10-17T02:30:35;28.50;;;18.90;;
68951;SDS011;56000;51.146;17.112;2022-10-17T02:33:15;38.00;;;20.60;;
68951;SDS011;56000;51.146;17.112;2022-10-17T02:35:52;32.10;;;21.00;;
68951;SDS011;56000;51.146;17.112;2022-10-17T02:38:28;27.80;;;17.60;;
68951;SDS011;56000;51.146;17.112;2022-10-17T02:41:02;27.80;;;19.20;;
68951;SDS011;56000;51.146;17.112;2022-10-17T02:43:40;29.80;;;18.90;;
68951;SDS011;56000;51.146;17.112;2022-10-17T02:46:15;35.00;;;23.10;;
68951;SDS011;56000;51.146;17.112;2022-10-17T02:48:53;34.00;;;21.50;;
68951;SDS011;56000;51.146;17.112;2022-10-17T02:51:30;32.90;;;21.80;;
68951;SDS011;56000;51.146;17.112;2022-10-17T02:54:08;34.00;;;22.80;;
68951;SDS011;56000;51.146;17.112;2022-10-17T02:56:50;34.80;;;22.60;;
68951;SDS011;56000;51.146;17.112;2022-10-17T02:59:28;33.00;;;21.60;;
68951;SDS011;56000;51.146;17.112;2022-10-17T03:02:04;33.10;;;21.00;;
68951;SDS011;56000;51.146;17.112;2022-10-17T03:04:38;40.50;;;24.80;;
68951;SDS011;56000;51.146;17.112;2022-10-17T03:07:14;32.90;;;21.70;;
68951;SDS011;56000;51.146;17.112;2022-10-17T03:09:47;36.30;;;22.70;;
68951;SDS011;56000;51.146;17.112;2022-10-17T03:12:20;34.30;;;22.50;;
68951;SDS011;56000;51.146;17.112;2022-10-17T03:14:54;42.80;;;25.50;;
68951;SDS011;56000;51.146;17.112;2022-10-17T03:17:31;36.20;;;22.20;;
68951;SDS011;56000;51.146;17.112;2022-10-17T03:20:07;44.70;;;23.10;;
68951;SDS011;56000;51.146;17.112;2022-10-17T03:22:40;27.90;;;19.20;;
68951;SDS011;56000;51.146;17.112;2022-10-17T03:25:13;30.40;;;19.60;;
68951;SDS011;56000;51.146;17.112;2022-10-17T03:27:49;31.20;;;19.80;;
68951;SDS011;56000;51.146;17.112;2022-10-17T03:30:22;36.10;;;22.30;;
68951;SDS011;56000;51.146;17.112;2022-10-17T03:32:55;33.00;;;20.70;;
68951;SDS011;56000;51.146;17.112;2022-10-17T03:35:29;35.20;;;22.20;;
68951;SDS011;56000;51.146;17.112;2022-10-17T03:38:03;27.70;;;18.80;;
68951;SDS011;56000;51.146;17.112;2022-10-17T03:40:36;32.20;;;20.60;;
68951;SDS011;56000;51.146;17.112;2022-10-17T03:43:09;29.70;;;19.40;;
68951;SDS011;56000;51.146;17.112;2022-10-17T03:45:42;29.90;;;20.10;;
68951;SDS011;56000;51.146;17.112;2022-10-17T03:48:15;31.10;;;21.30;;
68951;SDS011;56000;51.146;17.112;2022-10-17T03:50:48;35.10;;;21.80;;
68951;SDS011;56000;51.146;17.112;2022-10-17T03:53:22;33.30;;;20.60;;
68951;SDS011;56000;51.146;17.112;2022-10-17T03:55:55;35.60;;;20.60;;
68951;SDS011;56000;51.146;17.112;2022-10-17T03:58:38;31.30;;;19.60;;
68951;SDS011;56000;51.146;17.112;2022-10-17T04:01:13;35.50;;;20.70;;
68951;SDS011;56000;51.146;17.112;2022-10-17T04:03:50;34.30;;;21.60;;
68951;SDS011;56000;51.146;17.112;2022-10-17T04:06:24;31.80;;;19.50;;
68951;SDS011;56000;51.146;17.112;2022-10-17T04:08:58;32.80;;;20.80;;
68951;SDS011;56000;51.146;17.112;2022-10-17T04:11:49;32.90;;;20.20;;
68951;SDS011;56000;51.146;17.112;2022-10-17T04:14:22;29.50;;;18.80;;
68951;SDS011;56000;51.146;17.112;2022-10-17T04:16:55;28.20;;;18.10;;
68951;SDS011;56000;51.146;17.112;2022-10-17T04:19:28;38.10;;;21.90;;
68951;SDS011;56000;51.146;17.112;2022-10-17T04:22:01;33.80;;;21.10;;
68951;SDS011;56000;51.146;17.112;2022-10-17T04:24:38;31.80;;;21.10;;
68951;SDS011;56000;51.146;17.112;2022-10-17T04:27:16;33.00;;;21.60;;
68951;SDS011;56000;51.146;17.112;2022-10-17T04:29:49;31.20;;;20.50;;
68951;SDS011;56000;51.146;17.112;2022-10-17T04:32:25;34.10;;;18.60;;
68951;SDS011;56000;51.146;17.112;2022-10-17T04:35:13;29.80;;;19.40;;
68951;SDS011;56000;51.146;17.112;2022-10-17T04:37:49;29.30;;;18.70;;
68951;SDS011;56000;51.146;17.112;2022-10-17T04:40:22;36.40;;;21.60;;
68951;SDS011;56000;51.146;17.112;2022-10-17T04:42:55;33.80;;;20.80;;
68951;SDS011;56000;51.146;17.112;2022-10-17T04:45:33;40.60;;;22.80;;
68951;SDS011;56000;51.146;17.112;2022-10-17T04:48:07;38.90;;;22.00;;
68951;SDS011;56000;51.146;17.112;2022-10-17T04:50:40;31.60;;;21.00;;
68951;SDS011;56000;51.146;17.112;2022-10-17T04:53:38;30.90;;;21.50;;
68951;SDS011;56000;51.146;17.112;2022-10-17T04:56:15;36.10;;;23.00;;
68951;SDS011;56000;51.146;17.112;2022-10-17T04:58:49;32.70;;;20.20;;
68951;SDS011;56000;51.146;17.112;2022-10-17T05:01:23;30.50;;;18.30;;
68951;SDS011;56000;51.146;17.112;2022-10-17T05:03:58;33.40;;;20.90;;
68951;SDS011;56000;51.146;17.112;2022-10-17T05:06:31;34.40;;;20.80;;
68951;SDS011;56000;51.146;17.112;2022-10-17T05:09:26;34.00;;;20.80;;
68951;SDS011;56000;51.146;17.112;2022-10-17T05:11:59;33.20;;;19.60;;
68951;SDS011;56000;51.146;17.112;2022-10-17T05:14:39;31.90;;;20.60;;
68951;SDS011;56000;51.146;17.112;2022-10-17T05:17:12;35.40;;;20.90;;
68951;SDS011;56000;51.146;17.112;2022-10-17T05:19:45;35.40;;;21.30;;
68951;SDS011;56000;51.146;17.112;2022-10-17T05:22:19;30.60;;;19.50;;
68951;SDS011;56000;51.146;17.112;2022-10-17T05:24:52;38.70;;;21.50;;
68951;SDS011;56000;51.146;17.112;2022-10-17T05:27:42;32.60;;;20.40;;
68951;SDS011;56000;51.146;17.112;2022-10-17T05:30:16;35.50;;;20.90;;
68951;SDS011;56000;51.146;17.112;2022-10-17T05:32:53;35.10;;;21.00;;
68951;SDS011;56000;51.146;17.112;2022-10-17T05:35:27;32.80;;;20.70;;
68951;SDS011;56000;51.146;17.112;2022-10-17T05:38:00;27.20;;;18.60;;
68951;SDS011;56000;51.146;17.112;2022-10-17T05:40:33;33.20;;;21.20;;
68951;SDS011;56000;51.146;17.112;2022-10-17T05:43:08;30.60;;;20.30;;
68951;SDS011;56000;51.146;17.112;2022-10-17T05:45:41;32.60;;;20.80;;
68951;SDS011;56000;51.146;17.112;2022-10-17T05:48:18;40.40;;;21.80;;
68951;SDS011;56000;51.146;17.112;2022-10-17T05:50:58;34.70;;;21.10;;
68951;SDS011;56000;51.146;17.112;2022-10-17T05:53:33;32.00;;;17.80;;
68951;SDS011;56000;51.146;17.112;2022-10-17T05:56:11;31.20;;;20.20;;
68951;SDS011;56000;51.146;17.112;2022-10-17T05:58:44;30.80;;;19.80;;
68951;SDS011;56000;51.146;17.112;2022-10-17T06:01:43;30.60;;;19.30;;
68951;SDS011;56000;51.146;17.112;2022-10-17T06:04:16;30.00;;;19.40;;
68951;SDS011;56000;51.146;17.112;2022-10-17T06:06:49;32.60;;;21.20;;
68951;SDS011;56000;51.146;17.112;2022-10-17T06:09:22;36.60;;;19.90;;
68951;SDS011;56000;51.146;17.112;2022-10-17T06:11:56;30.10;;;19.50;;
68951;SDS011;56000;51.146;17.112;2022-10-17T06:14:29;34.70;;;19.50;;
68951;SDS011;56000;51.146;17.112;2022-10-17T06:17:04;28.40;;;20.30;;
68951;SDS011;56000;51.146;17.112;2022-10-17T06:19:43;25.90;;;18.50;;
68951;SDS011;56000;51.146;17.112;2022-10-17T06:22:17;34.70;;;20.30;;
68951;SDS011;56000;51.146;17.112;2022-10-17T06:24:50;32.70;;;21.30;;
68951;SDS011;56000;51.146;17.112;2022-10-17T06:27:41;27.10;;;19.20;;
68951;SDS011;56000;51.146;17.112;2022-10-17T06:30:15;37.80;;;22.50;;
68951;SDS011;56000;51.146;17.112;2022-10-17T06:32:48;28.80;;;18.30;;
68951;SDS011;56000;51.146;17.112;2022-10-17T06:35:21;26.00;;;17.20;;
68951;SDS011;56000;51.146;17.112;2022-10-17T06:37:55;29.10;;;19.30;;
68951;SDS011;56000;51.146;17.112;2022-10-17T06:40:28;35.40;;;19.60;;
68951;SDS011;56000;51.146;17.112;2022-10-17T06:43:01;24.90;;;17.40;;
68951;SDS011;56000;51.146;17.112;2022-10-17T06:46:09;29.40;;;18.20;;
68951;SDS011;56000;51.146;17.112;2022-10-17T06:48:55;26.50;;;18.00;;
68951;SDS011;56000;51.146;17.112;2022-10-17T06:51:37;36.10;;;20.60;;
68951;SDS011;56000;51.146;17.112;2022-10-17T06:54:12;30.70;;;20.50;;
68951;SDS011;56000;51.146;17.112;2022-10-17T06:57:06;29.50;;;19.50;;
68951;SDS011;56000;51.146;17.112;2022-10-17T07:00:13;36.70;;;21.60;;
68951;SDS011;56000;51.146;17.112;2022-10-17T07:02:51;30.00;;;20.40;;
68951;SDS011;56000;51.146;17.112;2022-10-17T07:05:25;32.00;;;21.90;;
68951;SDS011;56000;51.146;17.112;2022-10-17T07:07:58;30.00;;;20.20;;
68951;SDS011;56000;51.146;17.112;2022-10-17T07:10:30;30.70;;;18.60;;
68951;SDS011;56000;51.146;17.112;2022-10-17T07:13:08;28.30;;;17.60;;
68951;SDS011;56000;51.146;17.112;2022-10-17T07:15:41;30.20;;;19.30;;
68951;SDS011;56000;51.146;17.112;2022-10-17T07:18:15;27.30;;;18.60;;
68951;SDS011;56000;51.146;17.112;2022-10-17T07:20:54;27.80;;;17.90;;
68951;SDS011;56000;51.146;17.112;2022-10-17T07:23:28;23.20;;;16.30;;
68951;SDS011;56000;51.146;17.112;2022-10-17T07:26:04;25.50;;;18.00;;
68951;SDS011;56000;51.146;17.112;2022-10-17T07:28:40;26.10;;;17.90;;
68951;SDS011;56000;51.146;17.112;2022-10-17T07:31:29;23.00;;;15.70;;
68951;SDS011;56000;51.146;17.112;2022-10-17T07:34:02;25.80;;;16.50;;
68951;SDS011;56000;51.146;17.112;2022-10-17T07:36:35;24.90;;;17.20;;
68951;SDS011;56000;51.146;17.112;2022-10-17T07:39:09;26.40;;;17.30;;
68951;SDS011;56000;51.146;17.112;2022-10-17T07:41:42;31.40;;;16.50;;
68951;SDS011;56000;51.146;17.112;2022-10-17T07:44:16;24.20;;;16.70;;
68951;SDS011;56000;51.146;17.112;2022-10-17T07:46:51;24.90;;;17.60;;
68951;SDS011;56000;51.146;17.112;2022-10-17T07:49:25;21.50;;;14.70;;
68951;SDS011;56000;51.146;17.112;2022-10-17T07:51:58;22.30;;;15.70;;
68951;SDS011;56000;51.146;17.112;2022-10-17T07:54:31;20.20;;;15.10;;
68951;SDS011;56000;51.146;17.112;2022-10-17T07:57:04;31.80;;;15.50;;
68951;SDS011;56000;51.146;17.112;2022-10-17T07:59:37;23.40;;;14.60;;
68951;SDS011;56000;51.146;17.112;2022-10-17T08:02:11;24.70;;;14.80;;
68951;SDS011;56000;51.146;17.112;2022-10-17T08:04:48;20.90;;;14.10;;
68951;SDS011;56000;51.146;17.112;2022-10-17T08:07:21;21.20;;;13.70;;
68951;SDS011;56000;51.146;17.112;2022-10-17T08:09:58;23.40;;;14.20;;
68951;SDS011;56000;51.146;17.112;2022-10-17T08:12:31;26.70;;;13.20;;
68951;SDS011;56000;51.146;17.112;2022-10-17T08:15:05;21.70;;;13.00;;
68951;SDS011;56000;51.146;17.112;2022-10-17T08:17:39;17.20;;;12.80;;
68951;SDS011;56000;51.146;17.112;2022-10-17T08:20:12;18.00;;;12.30;;
68951;SDS011;56000;51.146;17.112;2022-10-17T08:22:51;18.10;;;13.40;;
68951;SDS011;56000;51.146;17.112;2022-10-17T08:25:24;18.60;;;12.00;;
68951;SDS011;56000;51.146;17.112;2022-10-17T08:27:57;18.00;;;12.90;;
68951;SDS011;56000;51.146;17.112;2022-10-17T08:30:30;16.70;;;12.70;;
68951;SDS011;56000;51.146;17.112;2022-10-17T08:33:03;16.40;;;12.70;;
68951;SDS011;56000;51.146;17.112;2022-10-17T08:35:36;14.50;;;11.60;;
68951;SDS011;56000;51.146;17.112;2022-10-17T08:38:09;16.90;;;12.60;;
68951;SDS011;56000;51.146;17.112;2022-10-17T08:40:43;14.70;;;11.20;;
68951;SDS011;56000;51.146;17.112;2022-10-17T08:43:27;16.00;;;11.00;;
68951;SDS011;56000;51.146;17.112;2022-10-17T08:46:08;16.10;;;11.70;;
68951;SDS011;56000;51.146;17.112;2022-10-17T08:48:45;14.90;;;11.30;;
68951;SDS011;56000;51.146;17.112;2022-10-17T08:51:23;16.70;;;11.40;;
68951;SDS011;56000;51.146;17.112;2022-10-17T08:53:59;18.70;;;12.20;;
68951;SDS011;56000;51.146;17.112;2022-10-17T08:56:39;19.30;;;12.20;;
68951;SDS011;56000;51.146;17.112;2022-10-17T08:59:20;15.60;;;11.60;;
68951;SDS011;56000;51.146;17.112;2022-10-17T09:01:59;16.50;;;11.50;;
68951;SDS011;56000;51.146;17.112;2022-10-17T09:04:58;17.60;;;12.40;;
68951;SDS011;56000;51.146;17.112;2022-10-17T09:07:46;20.00;;;11.50;;
68951;SDS011;56000;51.146;17.112;2022-10-17T09:10:26;16.20;;;11.00;;
68951;SDS011;56000;51.146;17.112;2022-10-17T09:13:15;14.80;;;10.10;;
68951;SDS011;56000;51.146;17.112;2022-10-17T09:16:03;14.20;;;10.40;;
68951;SDS011;56000;51.146;17.112;2022-10-17T09:18:46;13.80;;;10.60;;
68951;SDS011;56000;51.146;17.112;2022-10-17T09:21:35;13.10;;;10.60;;
68951;SDS011;56000;51.146;17.112;2022-10-17T09:24:16;11.70;;;9.70;;
68951;SDS011;56000;51.146;17.112;2022-10-17T09:26:54;11.10;;;10.00;;
68951;SDS011;56000;51.146;17.112;2022-10-17T09:29:28;14.60;;;9.10;;
68951;SDS011;56000;51.146;17.112;2022-10-17T09:32:12;12.50;;;8.90;;
68951;SDS011;56000;51.146;17.112;2022-10-17T09:34:48;10.80;;;9.10;;
68951;SDS011;56000;51.146;17.112;2022-10-17T09:37:23;14.30;;;9.70;;
68951;SDS011;56000;51.146;17.112;2022-10-17T09:40:02;12.60;;;10.00;;
68951;SDS011;56000;51.146;17.112;2022-10-17T09:42:41;12.80;;;9.20;;
68951;SDS011;56000;51.146;17.112;2022-10-17T09:45:19;15.40;;;9.80;;
68951;SDS011;56000;51.146;17.112;2022-10-17T09:47:59;12.00;;;9.60;;
68951;SDS011;56000;51.146;17.112;2022-10-17T09:50:37;13.00;;;9.80;;
68951;SDS011;56000;51.146;17.112;2022-10-17T09:53:14;11.50;;;8.90;;
68951;SDS011;56000;51.146;17.112;2022-10-17T09:55:51;11.40;;;8.80;;
68951;SDS011;56000;51.146;17.112;2022-10-17T09:58:43;13.60;;;10.50;;
68951;SDS011;56000;51.146;17.112;2022-10-17T10:01:22;13.60;;;9.50;;
68951;SDS011;56000;51.146;17.112;2022-10-17T10:09:35;16.60;;;9.90;;
68951;SDS011;56000;51.146;17.112;2022-10-17T10:12:17;14.00;;;9.20;;
68951;SDS011;56000;51.146;17.112;2022-10-17T10:14:51;11.30;;;8.30;;
68951;SDS011;56000;51.146;17.112;2022-10-17T10:17:33;16.30;;;9.00;;
68951;SDS011;56000;51.146;17.112;2022-10-17T10:20:25;12.20;;;8.20;;
68951;SDS011;56000;51.146;17.112;2022-10-17T10:23:13;11.90;;;9.20;;
68951;SDS011;56000;51.146;17.112;2022-10-17T10:25:53;11.20;;;8.30;;
68951;SDS011;56000;51.146;17.112;2022-10-17T10:28:28;11.60;;;8.30;;
68951;SDS011;56000;51.146;17.112;2022-10-17T10:31:05;12.10;;;8.30;;
68951;SDS011;56000;51.146;17.112;2022-10-17T10:33:41;9.50;;;7.40;;
68951;SDS011;56000;51.146;17.112;2022-10-17T10:36:19;14.30;;;7.60;;
68951;SDS011;56000;51.146;17.112;2022-10-17T10:38:54;13.20;;;8.20;;
68951;SDS011;56000;51.146;17.112;2022-10-17T10:41:45;12.10;;;7.70;;
68951;SDS011;56000;51.146;17.112;2022-10-17T10:44:18;10.50;;;7.80;;
68951;SDS011;56000;51.146;17.112;2022-10-17T10:47:16;8.70;;;7.50;;
68951;SDS011;56000;51.146;17.112;2022-10-17T10:50:15;8.90;;;7.00;;
68951;SDS011;56000;51.146;17.112;2022-10-17T10:52:59;10.20;;;7.10;;
68951;SDS011;56000;51.146;17.112;2022-10-17T10:55:45;9.90;;;6.80;;
68951;SDS011;56000;51.146;17.112;2022-10-17T10:58:33;10.10;;;8.10;;
68951;SDS011;56000;51.146;17.112;2022-10-17T11:01:15;13.50;;;7.50;;
68951;SDS011;56000;51.146;17.112;2022-10-17T11:03:59;10.80;;;7.30;;
68951;SDS011;56000;51.146;17.112;2022-10-17T11:06:38;8.20;;;7.40;;
68951;SDS011;56000;51.146;17.112;2022-10-17T11:09:20;14.60;;;8.00;;
68951;SDS011;56000;51.146;17.112;2022-10-17T11:12:10;9.20;;;7.40;;
68951;SDS011;56000;51.146;17.112;2022-10-17T11:14:52;12.60;;;7.30;;
68951;SDS011;56000;51.146;17.112;2022-10-17T11:17:33;12.10;;;7.20;;
68951;SDS011;56000;51.146;17.112;2022-10-17T11:20:17;11.20;;;7.30;;
68951;SDS011;56000;51.146;17.112;2022-10-17T11:22:55;8.20;;;7.30;;
68951;SDS011;56000;51.146;17.112;2022-10-17T11:25:34;11.10;;;7.20;;
68951;SDS011;56000;51.146;17.112;2022-10-17T11:28:12;12.50;;;7.50;;
68951;SDS011;56000;51.146;17.112;2022-10-17T11:30:50;9.70;;;7.20;;
68951;SDS011;56000;51.146;17.112;2022-10-17T11:33:29;11.80;;;7.50;;
68951;SDS011;56000;51.146;17.112;2022-10-17T11:36:10;9.50;;;7.00;;
68951;SDS011;56000;51.146;17.112;2022-10-17T11:38:46;9.10;;;7.80;;
68951;SDS011;56000;51.146;17.112;2022-10-17T11:41:25;10.30;;;7.90;;
68951;SDS011;56000;51.146;17.112;2022-10-17T11:44:04;8.50;;;6.90;;
68951;SDS011;56000;51.146;17.112;2022-10-17T11:46:44;11.20;;;7.10;;
68951;SDS011;56000;51.146;17.112;2022-10-17T11:49:23;12.50;;;7.60;;
68951;SDS011;56000;51.146;17.112;2022-10-17T11:52:13;12.10;;;7.50;;
68951;SDS011;56000;51.146;17.112;2022-10-17T11:55:14;13.20;;;7.30;;
68951;SDS011;56000;51.146;17.112;2022-10-17T11:57:58;9.10;;;6.80;;
68951;SDS011;56000;51.146;17.112;2022-10-17T12:00:50;10.80;;;7.90;;
68951;SDS011;56000;51.146;17.112;2022-10-17T12:03:41;8.50;;;7.00;;
68951;SDS011;56000;51.146;17.112;2022-10-17T12:06:27;11.10;;;7.00;;
68951;SDS011;56000;51.146;17.112;2022-10-17T12:09:09;14.50;;;7.20;;
68951;SDS011;56000;51.146;17.112;2022-10-17T12:11:50;11.60;;;6.40;;
68951;SDS011;56000;51.146;17.112;2022-10-17T12:14:41;7.90;;;6.80;;
68951;SDS011;56000;51.146;17.112;2022-10-17T12:17:29;9.10;;;7.00;;
68951;SDS011;56000;51.146;17.112;2022-10-17T12:20:26;13.50;;;7.30;;
68951;SDS011;56000;51.146;17.112;2022-10-17T12:23:20;9.00;;;6.80;;
68951;SDS011;56000;51.146;17.112;2022-10-17T12:25:59;12.70;;;7.70;;
68951;SDS011;56000;51.146;17.112;2022-10-17T12:28:39;11.20;;;7.50;;
68951;SDS011;56000;51.146;17.112;2022-10-17T12:31:22;13.50;;;7.50;;
68951;SDS011;56000;51.146;17.112;2022-10-17T12:34:03;12.80;;;7.30;;
68951;SDS011;56000;51.146;17.112;2022-10-17T12:36:39;14.80;;;7.60;;
68951;SDS011;56000;51.146;17.112;2022-10-17T12:42:31;8.60;;;6.80;;
68951;SDS011;56000;51.146;17.112;2022-10-17T12:45:48;13.80;;;7.00;;
68951;SDS011;56000;51.146;17.112;2022-10-17T12:52:29;16.90;;;7.20;;
68951;SDS011;56000;51.146;17.112;2022-10-17T12:55:29;14.10;;;7.70;;
68951;SDS011;56000;51.146;17.112;2022-10-17T12:58:04;15.40;;;7.80;;
68951;SDS011;56000;51.146;17.112;2022-10-17T13:00:45;11.10;;;8.00;;
68951;SDS011;56000;51.146;17.112;2022-10-17T13:03:44;14.00;;;8.30;;
68951;SDS011;56000;51.146;17.112;2022-10-17T13:06:22;11.10;;;7.70;;
68951;SDS011;56000;51.146;17.112;2022-10-17T13:08:59;11.50;;;8.20;;
68951;SDS011;56000;51.146;17.112;2022-10-17T13:11:35;20.20;;;8.40;;
68951;SDS011;56000;51.146;17.112;2022-10-17T13:14:12;10.70;;;7.90;;
68951;SDS011;56000;51.146;17.112;2022-10-17T13:16:54;13.80;;;8.50;;
68951;SDS011;56000;51.146;17.112;2022-10-17T13:19:30;14.80;;;8.20;;
68951;SDS011;56000;51.146;17.112;2022-10-17T13:22:14;11.10;;;8.10;;
68951;SDS011;56000;51.146;17.112;2022-10-17T13:24:50;13.70;;;8.50;;
68951;SDS011;56000;51.146;17.112;2022-10-17T13:27:35;10.10;;;8.40;;
68951;SDS011;56000;51.146;17.112;2022-10-17T13:30:24;13.70;;;9.70;;
68951;SDS011;56000;51.146;17.112;2022-10-17T13:33:01;15.60;;;9.30;;
68951;SDS011;56000;51.146;17.112;2022-10-17T13:35:47;15.30;;;8.50;;
68951;SDS011;56000;51.146;17.112;2022-10-17T13:38:35;13.40;;;9.50;;
68951;SDS011;56000;51.146;17.112;2022-10-17T13:41:12;16.00;;;9.90;;
68951;SDS011;56000;51.146;17.112;2022-10-17T13:44:12;19.00;;;10.40;;
68951;SDS011;56000;51.146;17.112;2022-10-17T13:46:47;15.10;;;8.40;;
68951;SDS011;56000;51.146;17.112;2022-10-17T13:49:25;15.90;;;10.00;;
68951;SDS011;56000;51.146;17.112;2022-10-17T13:52:04;13.00;;;9.00;;
68951;SDS011;56000;51.146;17.112;2022-10-17T13:54:47;23.00;;;10.20;;
68951;SDS011;56000;51.146;17.112;2022-10-17T13:57:24;20.60;;;9.90;;
68951;SDS011;56000;51.146;17.112;2022-10-17T13:59:59;17.60;;;10.40;;
68951;SDS011;56000;51.146;17.112;2022-10-17T14:02:42;15.50;;;9.80;;
68951;SDS011;56000;51.146;17.112;2022-10-17T14:05:18;13.10;;;9.20;;
68951;SDS011;56000;51.146;17.112;2022-10-17T14:07:53;18.30;;;10.20;;
68951;SDS011;56000;51.146;17.112;2022-10-17T14:10:48;23.10;;;10.60;;
68951;SDS011;56000;51.146;17.112;2022-10-17T14:13:22;17.50;;;9.90;;
68951;SDS011;56000;51.146;17.112;2022-10-17T14:15:58;11.50;;;9.70;;
68951;SDS011;56000;51.146;17.112;2022-10-17T14:18:33;15.70;;;10.10;;
68951;SDS011;56000;51.146;17.112;2022-10-17T14:21:08;18.20;;;10.40;;
68951;SDS011;56000;51.146;17.112;2022-10-17T14:24:28;17.50;;;9.90;;
68951;SDS011;56000;51.146;17.112;2022-10-17T14:27:01;17.20;;;10.70;;
68951;SDS011;56000;51.146;17.112;2022-10-17T14:29:55;17.80;;;10.90;;
68951;SDS011;56000;51.146;17.112;2022-10-17T14:32:33;14.80;;;9.50;;
68951;SDS011;56000;51.146;17.112;2022-10-17T14:35:15;14.80;;;9.80;;
68951;SDS011;56000;51.146;17.112;2022-10-17T14:38:11;14.50;;;9.70;;
68951;SDS011;56000;51.146;17.112;2022-10-17T14:40:50;14.70;;;11.00;;
68951;SDS011;56000;51.146;17.112;2022-10-17T14:43:50;19.80;;;10.90;;
68951;SDS011;56000;51.146;17.112;2022-10-17T14:46:24;15.10;;;10.20;;
68951;SDS011;56000;51.146;17.112;2022-10-17T14:49:04;19.80;;;10.10;;
68951;SDS011;56000;51.146;17.112;2022-10-17T14:51:38;16.90;;;10.20;;
68951;SDS011;56000;51.146;17.112;2022-10-17T14:54:37;17.00;;;10.50;;
68951;SDS011;56000;51.146;17.112;2022-10-17T14:57:18;20.60;;;10.70;;
68951;SDS011;56000;51.146;17.112;2022-10-17T14:59:53;21.10;;;10.90;;
68951;SDS011;56000;51.146;17.112;2022-10-17T15:02:27;15.90;;;10.50;;
68951;SDS011;56000;51.146;17.112;2022-10-17T15:05:01;25.60;;;15.50;;
68951;SDS011;56000;51.146;17.112;2022-10-17T15:07:41;20.60;;;10.40;;
68951;SDS011;56000;51.146;17.112;2022-10-17T15:10:30;18.10;;;10.70;;
68951;SDS011;56000;51.146;17.112;2022-10-17T15:15:55;14.60;;;10.40;;
68951;SDS011;56000;51.146;17.112;2022-10-17T15:18:28;21.50;;;11.90;;
68951;SDS011;56000;51.146;17.112;2022-10-17T15:21:01;19.80;;;10.70;;
68951;SDS011;56000;51.146;17.112;2022-10-17T15:23:55;20.80;;;12.00;;
68951;SDS011;56000;51.146;17.112;2022-10-17T15:26:32;18.60;;;10.00;;
68951;SDS011;56000;51.146;17.112;2022-10-17T15:29:05;18.30;;;10.50;;
68951;SDS011;56000;51.146;17.112;2022-10-17T15:31:40;18.90;;;10.30;;
68951;SDS011;56000;51.146;17.112;2022-10-17T15:34:13;20.00;;;12.30;;
68951;SDS011;56000;51.146;17.112;2022-10-17T15:36:49;20.80;;;10.40;;
68951;SDS011;56000;51.146;17.112;2022-10-17T15:39:22;21.60;;;11.10;;